sensor_id;sensor_type;location;lat;lon;timestamp;pressure;altitude;pressure_sealevel;temperature;humidity
77019;BME280;66044;53.142;17.962;2023-12-07T00:01:51;101428.77;;;-1.85;78.18
77019;BME280;66044;53.142;17.962;2023-12-07T00:04:18;101432.40;;;-1.86;78.53
77019;BME280;66044;53.142;17.962;2023-12-07T00:06:44;101434.54;;;-1.85;78.40
77019;BME280;66044;53.142;17.962;2023-12-07T00:09:11;101432.41;;;-1.83;78.37
77019;BME280;66044;53.142;17.962;2023-12-07T00:11:37;101433.86;;;-1.82;78.18
77019;BME280;66044;53.142;17.962;2023-12-07T00:14:04;101432.22;;;-1.81;78.45
77019;BME280;66044;53.142;17.962;2023-12-07T00:16:31;101434.45;;;-1.82;78.22
77019;BME280;66044;53.142;17.962;2023-12-07T00:18:57;101439.04;;;-1.82;78.24
77019;BME280;66044;53.142;17.962;2023-12-07T00:21:24;101439.71;;;-1.81;78.34
77019;BME280;66044;53.142;17.962;2023-12-07T00:23:50;101438.69;;;-1.79;78.16
77019;BME280;66044;53.142;17.962;2023-12-07T00:26:17;101438.83;;;-1.80;77.87
77019;BME280;66044;53.142;17.962;2023-12-07T00:28:44;101438.73;;;-1.79;78.28
77019;BME280;66044;53.142;17.962;2023-12-07T00:31:10;101442.95;;;-1.79;78.04
77019;BME280;66044;53.142;17.962;2023-12-07T00:33:37;101437.91;;;-1.80;78.28
77019;BME280;66044;53.142;17.962;2023-12-07T00:36:04;101445.06;;;-1.80;78.09
77019;BME280;66044;53.142;17.962;2023-12-07T00:38:30;101446.42;;;-1.81;77.85
77019;BME280;66044;53.142;17.962;2023-12-07T00:40:58;101448.20;;;-1.79;78.05
77019;BME280;66044;53.142;17.962;2023-12-07T00:43:25;101446.18;;;-1.78;77.93
77019;BME280;66044;53.142;17.962;2023-12-07T00:45:52;101444.20;;;-1.79;77.72
77019;BME280;66044;53.142;17.962;2023-12-07T00:48:18;101446.64;;;-1.81;77.78
77019;BME280;66044;53.142;17.962;2023-12-07T00:50:45;101447.81;;;-1.81;77.82
77019;BME280;66044;53.142;17.962;2023-12-07T00:53:11;101453.45;;;-1.82;77.91
77019;BME280;66044;53.142;17.962;2023-12-07T00:55:38;101450.96;;;-1.81;77.94
77019;BME280;66044;53.142;17.962;2023-12-07T00:58:05;101452.08;;;-1.78;77.92
77019;BME280;66044;53.142;17.962;2023-12-07T01:00:32;101456.55;;;-1.81;77.80
77019;BME280;66044;53.142;17.962;2023-12-07T01:02:58;101458.93;;;-1.82;77.92
77019;BME280;66044;53.142;17.962;2023-12-07T01:05:25;101458.75;;;-1.81;77.81
77019;BME280;66044;53.142;17.962;2023-12-07T01:07:52;101458.44;;;-1.80;78.09
77019;BME280;66044;53.142;17.962;2023-12-07T01:10:18;101467.02;;;-1.77;78.10
77019;BME280;66044;53.142;17.962;2023-12-07T01:12:45;101465.98;;;-1.78;78.08
77019;BME280;66044;53.142;17.962;2023-12-07T01:15:11;101470.39;;;-1.78;77.70
77019;BME280;66044;53.142;17.962;2023-12-07T01:17:38;101474.84;;;-1.82;77.75
77019;BME280;66044;53.142;17.962;2023-12-07T01:20:06;101472.95;;;-1.83;77.77
77019;BME280;66044;53.142;17.962;2023-12-07T01:22:41;101473.86;;;-1.81;77.87
77019;BME280;66044;53.142;17.962;2023-12-07T01:25:08;101473.05;;;-1.80;77.74
77019;BME280;66044;53.142;17.962;2023-12-07T01:36:34;101475.84;;;-1.78;77.94
77019;BME280;66044;53.142;17.962;2023-12-07T01:47:30;101475.66;;;-1.77;77.79
77019;BME280;66044;53.142;17.962;2023-12-07T01:49:59;101476.69;;;-1.76;77.67
77019;BME280;66044;53.142;17.962;2023-12-07T01:52:28;101479.77;;;-1.75;77.60
77019;BME280;66044;53.142;17.962;2023-12-07T01:54:56;101482.42;;;-1.72;77.83
77019;BME280;66044;53.142;17.962;2023-12-07T01:57:24;101478.44;;;-1.71;77.78
77019;BME280;66044;53.142;17.962;2023-12-07T01:59:51;101480.96;;;-1.74;77.58
77019;BME280;66044;53.142;17.962;2023-12-07T02:02:17;101482.40;;;-1.75;77.81
77019;BME280;66044;53.142;17.962;2023-12-07T02:04:44;101477.52;;;-1.77;77.60
77019;BME280;66044;53.142;17.962;2023-12-07T02:27:15;101474.33;;;-1.73;77.84
77019;BME280;66044;53.142;17.962;2023-12-07T02:35:41;101486.67;;;-1.68;77.80
77019;BME280;66044;53.142;17.962;2023-12-07T02:38:09;101487.69;;;-1.62;78.14
77019;BME280;66044;53.142;17.962;2023-12-07T03:02:56;101496.67;;;-1.56;77.60
77019;BME280;66044;53.142;17.962;2023-12-07T03:05:23;101493.00;;;-1.54;77.64
77019;BME280;66044;53.142;17.962;2023-12-07T03:37:47;101485.48;;;-1.62;77.64
77019;BME280;66044;53.142;17.962;2023-12-07T03:40:13;101486.86;;;-1.67;77.21
77019;BME280;66044;53.142;17.962;2023-12-07T03:45:34;101495.89;;;-1.70;77.30
77019;BME280;66044;53.142;17.962;2023-12-07T03:50:48;101502.34;;;-1.70;77.50
77019;BME280;66044;53.142;17.962;2023-12-07T03:53:14;101504.73;;;-1.67;77.52
77019;BME280;66044;53.142;17.962;2023-12-07T03:55:41;101506.05;;;-1.64;77.27
77019;BME280;66044;53.142;17.962;2023-12-07T03:58:08;101504.18;;;-1.64;77.27
77019;BME280;66044;53.142;17.962;2023-12-07T04:00:34;101508.30;;;-1.63;77.23
77019;BME280;66044;53.142;17.962;2023-12-07T04:03:00;101508.63;;;-1.63;77.44
77019;BME280;66044;53.142;17.962;2023-12-07T04:05:27;101514.86;;;-1.62;77.45
77019;BME280;66044;53.142;17.962;2023-12-07T04:07:53;101513.65;;;-1.62;77.38
77019;BME280;66044;53.142;17.962;2023-12-07T04:10:20;101514.02;;;-1.64;77.77
77019;BME280;66044;53.142;17.962;2023-12-07T04:12:46;101513.22;;;-1.64;77.58
77019;BME280;66044;53.142;17.962;2023-12-07T04:15:12;101511.02;;;-1.66;77.39
77019;BME280;66044;53.142;17.962;2023-12-07T04:17:39;101519.94;;;-1.66;77.49
77019;BME280;66044;53.142;17.962;2023-12-07T04:20:07;101520.98;;;-1.65;77.22
77019;BME280;66044;53.142;17.962;2023-12-07T04:22:34;101522.59;;;-1.64;77.31
77019;BME280;66044;53.142;17.962;2023-12-07T04:25:00;101529.52;;;-1.65;77.33
77019;BME280;66044;53.142;17.962;2023-12-07T04:27:27;101529.77;;;-1.67;77.23
77019;BME280;66044;53.142;17.962;2023-12-07T04:29:53;101535.01;;;-1.67;77.28
77019;BME280;66044;53.142;17.962;2023-12-07T04:32:20;101538.29;;;-1.68;77.51
77019;BME280;66044;53.142;17.962;2023-12-07T04:34:47;101543.35;;;-1.68;77.35
77019;BME280;66044;53.142;17.962;2023-12-07T04:37:13;101542.84;;;-1.69;77.16
77019;BME280;66044;53.142;17.962;2023-12-07T04:39:40;101537.66;;;-1.70;77.08
77019;BME280;66044;53.142;17.962;2023-12-07T04:42:06;101540.05;;;-1.71;77.14
77019;BME280;66044;53.142;17.962;2023-12-07T04:44:33;101538.66;;;-1.72;77.23
77019;BME280;66044;53.142;17.962;2023-12-07T04:46:59;101534.45;;;-1.74;77.30
77019;BME280;66044;53.142;17.962;2023-12-07T04:49:26;101535.25;;;-1.77;77.40
77019;BME280;66044;53.142;17.962;2023-12-07T04:51:53;101535.80;;;-1.80;77.45
77019;BME280;66044;53.142;17.962;2023-12-07T04:54:20;101534.68;;;-1.83;77.08
77019;BME280;66044;53.142;17.962;2023-12-07T04:56:46;101538.66;;;-1.84;77.32
77019;BME280;66044;53.142;17.962;2023-12-07T04:59:13;101533.73;;;-1.86;77.20
77019;BME280;66044;53.142;17.962;2023-12-07T05:01:39;101535.50;;;-1.87;77.27
77019;BME280;66044;53.142;17.962;2023-12-07T05:04:06;101532.11;;;-1.88;77.20
77019;BME280;66044;53.142;17.962;2023-12-07T05:06:32;101533.80;;;-1.90;77.34
77019;BME280;66044;53.142;17.962;2023-12-07T05:08:59;101535.44;;;-1.92;77.07
77019;BME280;66044;53.142;17.962;2023-12-07T05:11:26;101538.80;;;-1.93;77.53
77019;BME280;66044;53.142;17.962;2023-12-07T05:13:52;101541.41;;;-1.95;77.40
77019;BME280;66044;53.142;17.962;2023-12-07T05:16:19;101544.13;;;-1.95;77.45
77019;BME280;66044;53.142;17.962;2023-12-07T05:18:45;101550.67;;;-1.94;77.42
77019;BME280;66044;53.142;17.962;2023-12-07T05:21:12;101557.36;;;-1.93;77.38
77019;BME280;66044;53.142;17.962;2023-12-07T05:23:38;101555.64;;;-1.91;77.33
77019;BME280;66044;53.142;17.962;2023-12-07T05:26:05;101552.89;;;-1.89;77.36
77019;BME280;66044;53.142;17.962;2023-12-07T05:28:32;101551.60;;;-1.86;77.51
77019;BME280;66044;53.142;17.962;2023-12-07T05:30:58;101551.52;;;-1.83;77.50
77019;BME280;66044;53.142;17.962;2023-12-07T05:33:24;101552.17;;;-1.83;77.36
77019;BME280;66044;53.142;17.962;2023-12-07T05:35:51;101555.89;;;-1.82;77.02
77019;BME280;66044;53.142;17.962;2023-12-07T05:38:18;101556.30;;;-1.80;77.28
77019;BME280;66044;53.142;17.962;2023-12-07T05:40:44;101556.11;;;-1.79;77.10
77019;BME280;66044;53.142;17.962;2023-12-07T05:43:10;101555.06;;;-1.78;77.13
77019;BME280;66044;53.142;17.962;2023-12-07T05:45:37;101554.46;;;-1.79;77.20
77019;BME280;66044;53.142;17.962;2023-12-07T05:48:03;101552.48;;;-1.80;77.05
77019;BME280;66044;53.142;17.962;2023-12-07T05:50:30;101551.33;;;-1.81;77.36
77019;BME280;66044;53.142;17.962;2023-12-07T05:52:56;101552.71;;;-1.81;77.35
77019;BME280;66044;53.142;17.962;2023-12-07T05:55:23;101556.85;;;-1.80;77.30
77019;BME280;66044;53.142;17.962;2023-12-07T05:57:50;101557.45;;;-1.78;77.63
77019;BME280;66044;53.142;17.962;2023-12-07T06:00:16;101562.90;;;-1.76;77.49
77019;BME280;66044;53.142;17.962;2023-12-07T06:02:43;101560.73;;;-1.74;77.37
77019;BME280;66044;53.142;17.962;2023-12-07T06:05:09;101564.13;;;-1.72;77.40
77019;BME280;66044;53.142;17.962;2023-12-07T06:07:37;101562.86;;;-1.71;77.53
77019;BME280;66044;53.142;17.962;2023-12-07T06:10:03;101565.09;;;-1.69;77.64
77019;BME280;66044;53.142;17.962;2023-12-07T06:12:31;101568.18;;;-1.67;77.45
77019;BME280;66044;53.142;17.962;2023-12-07T06:14:58;101573.91;;;-1.66;77.21
77019;BME280;66044;53.142;17.962;2023-12-07T06:17:24;101577.11;;;-1.64;77.63
77019;BME280;66044;53.142;17.962;2023-12-07T06:19:50;101583.00;;;-1.61;77.52
77019;BME280;66044;53.142;17.962;2023-12-07T06:22:17;101592.02;;;-1.57;77.46
77019;BME280;66044;53.142;17.962;2023-12-07T06:24:43;101595.46;;;-1.52;77.35
77019;BME280;66044;53.142;17.962;2023-12-07T06:27:11;101599.45;;;-1.48;77.53
77019;BME280;66044;53.142;17.962;2023-12-07T06:29:37;101603.10;;;-1.44;77.44
77019;BME280;66044;53.142;17.962;2023-12-07T06:32:03;101601.91;;;-1.41;77.37
77019;BME280;66044;53.142;17.962;2023-12-07T06:34:30;101605.92;;;-1.37;77.53
77019;BME280;66044;53.142;17.962;2023-12-07T06:36:56;101608.05;;;-1.34;77.52
77019;BME280;66044;53.142;17.962;2023-12-07T06:39:23;101605.59;;;-1.30;77.74
77019;BME280;66044;53.142;17.962;2023-12-07T06:41:49;101611.40;;;-1.27;77.35
77019;BME280;66044;53.142;17.962;2023-12-07T06:44:16;101611.02;;;-1.24;77.33
77019;BME280;66044;53.142;17.962;2023-12-07T06:46:42;101617.77;;;-1.22;77.35
77019;BME280;66044;53.142;17.962;2023-12-07T06:49:08;101612.48;;;-1.21;77.28
77019;BME280;66044;53.142;17.962;2023-12-07T06:51:35;101615.42;;;-1.21;77.23
77019;BME280;66044;53.142;17.962;2023-12-07T06:54:02;101616.02;;;-1.20;77.27
77019;BME280;66044;53.142;17.962;2023-12-07T06:56:29;101617.17;;;-1.20;77.00
77019;BME280;66044;53.142;17.962;2023-12-07T06:58:55;101617.13;;;-1.20;77.33
77019;BME280;66044;53.142;17.962;2023-12-07T07:01:22;101621.74;;;-1.19;77.36
77019;BME280;66044;53.142;17.962;2023-12-07T07:03:48;101622.78;;;-1.17;77.43
77019;BME280;66044;53.142;17.962;2023-12-07T07:06:15;101623.27;;;-1.15;77.34
77019;BME280;66044;53.142;17.962;2023-12-07T07:08:41;101626.31;;;-1.13;77.39
77019;BME280;66044;53.142;17.962;2023-12-07T07:11:12;101621.23;;;-1.12;77.26
77019;BME280;66044;53.142;17.962;2023-12-07T07:13:40;101622.20;;;-1.10;77.14
77019;BME280;66044;53.142;17.962;2023-12-07T07:16:08;101622.67;;;-1.09;77.09
77019;BME280;66044;53.142;17.962;2023-12-07T07:18:34;101624.80;;;-1.08;77.10
77019;BME280;66044;53.142;17.962;2023-12-07T07:21:01;101622.40;;;-1.06;77.07
77019;BME280;66044;53.142;17.962;2023-12-07T07:23:30;101620.93;;;-1.06;77.11
77019;BME280;66044;53.142;17.962;2023-12-07T07:25:56;101622.09;;;-1.03;76.85
77019;BME280;66044;53.142;17.962;2023-12-07T07:28:23;101621.09;;;-1.01;77.55
77019;BME280;66044;53.142;17.962;2023-12-07T07:30:49;101618.20;;;-0.99;77.39
77019;BME280;66044;53.142;17.962;2023-12-07T07:33:17;101621.64;;;-0.96;77.42
77019;BME280;66044;53.142;17.962;2023-12-07T07:35:44;101621.42;;;-0.92;76.96
77019;BME280;66044;53.142;17.962;2023-12-07T07:38:10;101623.38;;;-0.88;77.05
77019;BME280;66044;53.142;17.962;2023-12-07T07:40:37;101624.49;;;-0.83;77.09
77019;BME280;66044;53.142;17.962;2023-12-07T07:43:03;101624.26;;;-0.80;77.21
77019;BME280;66044;53.142;17.962;2023-12-07T07:45:29;101619.85;;;-0.77;76.87
77019;BME280;66044;53.142;17.962;2023-12-07T07:47:56;101627.76;;;-0.75;77.05
77019;BME280;66044;53.142;17.962;2023-12-07T07:50:22;101626.42;;;-0.72;76.89
77019;BME280;66044;53.142;17.962;2023-12-07T07:52:49;101628.82;;;-0.69;77.07
77019;BME280;66044;53.142;17.962;2023-12-07T07:55:15;101631.38;;;-0.65;76.93
77019;BME280;66044;53.142;17.962;2023-12-07T07:57:42;101634.96;;;-0.61;77.13
77019;BME280;66044;53.142;17.962;2023-12-07T08:00:09;101635.87;;;-0.56;77.12
77019;BME280;66044;53.142;17.962;2023-12-07T08:02:36;101638.77;;;-0.52;77.12
77019;BME280;66044;53.142;17.962;2023-12-07T08:05:02;101640.52;;;-0.47;77.07
77019;BME280;66044;53.142;17.962;2023-12-07T08:07:29;101633.80;;;-0.46;76.90
77019;BME280;66044;53.142;17.962;2023-12-07T08:09:55;101630.11;;;-0.43;77.29
77019;BME280;66044;53.142;17.962;2023-12-07T08:12:22;101630.02;;;-0.41;77.19
77019;BME280;66044;53.142;17.962;2023-12-07T08:14:51;101626.27;;;-0.37;76.92
77019;BME280;66044;53.142;17.962;2023-12-07T08:17:18;101627.63;;;-0.37;76.94
77019;BME280;66044;53.142;17.962;2023-12-07T08:19:45;101628.79;;;-0.36;76.96
77019;BME280;66044;53.142;17.962;2023-12-07T08:22:12;101629.84;;;-0.33;77.08
77019;BME280;66044;53.142;17.962;2023-12-07T08:24:39;101630.78;;;-0.29;77.07
77019;BME280;66044;53.142;17.962;2023-12-07T08:27:06;101632.96;;;-0.22;77.03
77019;BME280;66044;53.142;17.962;2023-12-07T08:29:34;101635.90;;;-0.13;77.21
77019;BME280;66044;53.142;17.962;2023-12-07T08:32:00;101636.33;;;-0.08;76.73
77019;BME280;66044;53.142;17.962;2023-12-07T08:34:29;101639.48;;;-0.04;76.94
77019;BME280;66044;53.142;17.962;2023-12-07T08:36:55;101637.00;;;0.01;76.76
77019;BME280;66044;53.142;17.962;2023-12-07T08:39:22;101639.84;;;0.07;76.90
77019;BME280;66044;53.142;17.962;2023-12-07T08:41:49;101642.38;;;0.10;76.55
77019;BME280;66044;53.142;17.962;2023-12-07T08:44:15;101646.04;;;0.08;76.48
77019;BME280;66044;53.142;17.962;2023-12-07T08:46:41;101646.98;;;0.04;76.63
77019;BME280;66044;53.142;17.962;2023-12-07T08:49:11;101649.50;;;0.03;76.49
77019;BME280;66044;53.142;17.962;2023-12-07T08:51:37;101649.91;;;0.09;76.64
77019;BME280;66044;53.142;17.962;2023-12-07T08:54:04;101654.23;;;0.18;76.94
77019;BME280;66044;53.142;17.962;2023-12-07T08:56:31;101655.79;;;0.25;76.45
77019;BME280;66044;53.142;17.962;2023-12-07T08:58:58;101657.48;;;0.29;76.46
77019;BME280;66044;53.142;17.962;2023-12-07T09:01:24;101657.33;;;0.31;76.39
77019;BME280;66044;53.142;17.962;2023-12-07T09:03:52;101663.55;;;0.33;76.44
77019;BME280;66044;53.142;17.962;2023-12-07T09:06:19;101662.19;;;0.35;76.29
77019;BME280;66044;53.142;17.962;2023-12-07T09:08:45;101668.48;;;0.38;76.35
77019;BME280;66044;53.142;17.962;2023-12-07T09:11:11;101670.39;;;0.42;76.21
77019;BME280;66044;53.142;17.962;2023-12-07T09:13:38;101673.28;;;0.37;76.00
77019;BME280;66044;53.142;17.962;2023-12-07T09:16:05;101669.35;;;0.34;76.14
77019;BME280;66044;53.142;17.962;2023-12-07T09:18:33;101671.56;;;0.33;76.11
77019;BME280;66044;53.142;17.962;2023-12-07T09:21:01;101667.55;;;0.39;76.09
77019;BME280;66044;53.142;17.962;2023-12-07T09:23:27;101667.11;;;0.41;75.98
77019;BME280;66044;53.142;17.962;2023-12-07T09:25:54;101667.21;;;0.46;76.28
77019;BME280;66044;53.142;17.962;2023-12-07T09:28:20;101672.27;;;0.53;76.23
77019;BME280;66044;53.142;17.962;2023-12-07T09:30:47;101667.77;;;0.61;76.17
77019;BME280;66044;53.142;17.962;2023-12-07T09:33:13;101668.94;;;0.66;76.03
77019;BME280;66044;53.142;17.962;2023-12-07T09:35:40;101666.75;;;0.70;75.75
77019;BME280;66044;53.142;17.962;2023-12-07T09:38:06;101666.42;;;0.76;75.87
77019;BME280;66044;53.142;17.962;2023-12-07T09:40:33;101665.48;;;0.82;75.65
77019;BME280;66044;53.142;17.962;2023-12-07T09:43:00;101658.73;;;0.86;75.53
77019;BME280;66044;53.142;17.962;2023-12-07T09:45:26;101654.59;;;0.88;75.59
77019;BME280;66044;53.142;17.962;2023-12-07T09:47:54;101651.10;;;0.91;75.59
77019;BME280;66044;53.142;17.962;2023-12-07T09:50:25;101651.85;;;0.94;75.47
77019;BME280;66044;53.142;17.962;2023-12-07T09:52:53;101651.02;;;0.98;75.48
77019;BME280;66044;53.142;17.962;2023-12-07T09:55:23;101654.58;;;0.99;75.34
77019;BME280;66044;53.142;17.962;2023-12-07T09:57:49;101658.36;;;0.94;75.13
77019;BME280;66044;53.142;17.962;2023-12-07T10:00:17;101656.75;;;0.84;75.14
77019;BME280;66044;53.142;17.962;2023-12-07T10:02:45;101659.39;;;0.81;75.09
77019;BME280;66044;53.142;17.962;2023-12-07T10:05:15;101659.64;;;0.80;75.16
77019;BME280;66044;53.142;17.962;2023-12-07T10:07:47;101658.15;;;0.77;75.21
77019;BME280;66044;53.142;17.962;2023-12-07T10:10:15;101658.52;;;0.74;75.03
77019;BME280;66044;53.142;17.962;2023-12-07T10:12:52;101659.88;;;0.71;75.19
77019;BME280;66044;53.142;17.962;2023-12-07T10:15:19;101657.15;;;0.70;75.13
77019;BME280;66044;53.142;17.962;2023-12-07T10:17:48;101657.02;;;0.68;75.10
77019;BME280;66044;53.142;17.962;2023-12-07T10:20:23;101653.60;;;0.66;75.22
77019;BME280;66044;53.142;17.962;2023-12-07T10:23:06;101655.30;;;0.66;75.28
77019;BME280;66044;53.142;17.962;2023-12-07T10:25:40;101656.62;;;0.71;75.51
77019;BME280;66044;53.142;17.962;2023-12-07T10:28:08;101654.42;;;0.78;75.44
77019;BME280;66044;53.142;17.962;2023-12-07T10:30:37;101654.46;;;0.81;75.26
77019;BME280;66044;53.142;17.962;2023-12-07T10:33:05;101646.99;;;0.89;75.50
77019;BME280;66044;53.142;17.962;2023-12-07T10:35:35;101642.92;;;0.97;75.24
77019;BME280;66044;53.142;17.962;2023-12-07T10:38:04;101645.05;;;1.01;74.95
77019;BME280;66044;53.142;17.962;2023-12-07T10:40:31;101641.88;;;1.04;74.99
77019;BME280;66044;53.142;17.962;2023-12-07T10:42:58;101641.38;;;1.07;74.92
77019;BME280;66044;53.142;17.962;2023-12-07T10:45:26;101639.70;;;1.13;75.05
77019;BME280;66044;53.142;17.962;2023-12-07T10:48:02;101644.90;;;1.17;74.76
77019;BME280;66044;53.142;17.962;2023-12-07T10:50:35;101645.33;;;1.14;74.59
77019;BME280;66044;53.142;17.962;2023-12-07T10:53:09;101645.66;;;1.15;74.62
77019;BME280;66044;53.142;17.962;2023-12-07T10:55:47;101644.55;;;1.18;74.65
77019;BME280;66044;53.142;17.962;2023-12-07T10:58:19;101643.92;;;1.25;74.93
77019;BME280;66044;53.142;17.962;2023-12-07T11:00:47;101637.36;;;1.29;74.54
77019;BME280;66044;53.142;17.962;2023-12-07T11:03:15;101638.11;;;1.26;74.19
77019;BME280;66044;53.142;17.962;2023-12-07T11:05:45;101640.36;;;1.22;74.36
77019;BME280;66044;53.142;17.962;2023-12-07T11:08:38;101639.42;;;1.19;74.47
77019;BME280;66044;53.142;17.962;2023-12-07T11:11:12;101636.24;;;1.12;74.45
77019;BME280;66044;53.142;17.962;2023-12-07T11:13:47;101635.67;;;1.09;74.39
77019;BME280;66044;53.142;17.962;2023-12-07T11:16:16;101635.65;;;1.08;74.53
77019;BME280;66044;53.142;17.962;2023-12-07T11:18:42;101638.63;;;1.12;74.53
77019;BME280;66044;53.142;17.962;2023-12-07T11:21:09;101637.30;;;1.18;74.48
77019;BME280;66044;53.142;17.962;2023-12-07T11:23:36;101637.66;;;1.22;74.53
77019;BME280;66044;53.142;17.962;2023-12-07T11:26:03;101634.08;;;1.19;74.25
77019;BME280;66044;53.142;17.962;2023-12-07T11:28:37;101631.65;;;1.13;74.28
77019;BME280;66044;53.142;17.962;2023-12-07T11:31:07;101627.41;;;1.06;74.43
77019;BME280;66044;53.142;17.962;2023-12-07T11:33:37;101628.73;;;1.02;74.52
77019;BME280;66044;53.142;17.962;2023-12-07T11:36:06;101625.85;;;1.01;74.55
77019;BME280;66044;53.142;17.962;2023-12-07T11:38:33;101624.80;;;1.05;74.51
77019;BME280;66044;53.142;17.962;2023-12-07T11:41:00;101626.15;;;1.07;74.49
77019;BME280;66044;53.142;17.962;2023-12-07T11:46:07;101626.52;;;1.19;74.59
77019;BME280;66044;53.142;17.962;2023-12-07T11:48:34;101622.17;;;1.18;74.32
77019;BME280;66044;53.142;17.962;2023-12-07T11:51:02;101623.55;;;1.16;74.30
77019;BME280;66044;53.142;17.962;2023-12-07T11:53:33;101621.20;;;1.15;74.39
77019;BME280;66044;53.142;17.962;2023-12-07T11:56:10;101618.92;;;1.18;74.38
77019;BME280;66044;53.142;17.962;2023-12-07T11:58:37;101615.27;;;1.17;74.22
77019;BME280;66044;53.142;17.962;2023-12-07T12:01:04;101616.02;;;1.18;74.36
77019;BME280;66044;53.142;17.962;2023-12-07T12:03:31;101614.39;;;1.18;74.51
77019;BME280;66044;53.142;17.962;2023-12-07T12:05:58;101614.69;;;1.20;74.31
77019;BME280;66044;53.142;17.962;2023-12-07T12:08:25;101616.12;;;1.21;74.34
77019;BME280;66044;53.142;17.962;2023-12-07T12:10:53;101612.77;;;1.16;74.30
77019;BME280;66044;53.142;17.962;2023-12-07T12:13:27;101613.96;;;1.11;74.28
77019;BME280;66044;53.142;17.962;2023-12-07T12:15:55;101612.55;;;1.07;74.36
77019;BME280;66044;53.142;17.962;2023-12-07T12:18:22;101608.35;;;1.06;74.44
77019;BME280;66044;53.142;17.962;2023-12-07T12:20:50;101606.39;;;1.06;74.51
77019;BME280;66044;53.142;17.962;2023-12-07T12:23:17;101607.02;;;1.04;74.59
77019;BME280;66044;53.142;17.962;2023-12-07T12:25:46;101601.17;;;1.00;74.35
77019;BME280;66044;53.142;17.962;2023-12-07T12:28:16;101602.36;;;0.95;74.41
77019;BME280;66044;53.142;17.962;2023-12-07T12:30:50;101592.86;;;0.94;74.56
77019;BME280;66044;53.142;17.962;2023-12-07T12:33:17;101596.67;;;0.94;74.63
77019;BME280;66044;53.142;17.962;2023-12-07T12:35:43;101598.61;;;0.93;74.66
77019;BME280;66044;53.142;17.962;2023-12-07T12:38:18;101595.41;;;0.92;74.76
77019;BME280;66044;53.142;17.962;2023-12-07T12:40:45;101597.30;;;0.91;74.76
77019;BME280;66044;53.142;17.962;2023-12-07T12:43:13;101601.55;;;0.98;74.94
77019;BME280;66044;53.142;17.962;2023-12-07T12:45:39;101607.27;;;1.00;74.76
77019;BME280;66044;53.142;17.962;2023-12-07T12:48:06;101608.61;;;0.99;74.79
77019;BME280;66044;53.142;17.962;2023-12-07T12:50:40;101606.29;;;0.96;74.87
77019;BME280;66044;53.142;17.962;2023-12-07T12:53:08;101607.60;;;0.93;74.80
77019;BME280;66044;53.142;17.962;2023-12-07T12:55:40;101605.13;;;0.90;74.91
77019;BME280;66044;53.142;17.962;2023-12-07T12:58:08;101602.88;;;0.88;74.95
77019;BME280;66044;53.142;17.962;2023-12-07T13:00:39;101605.51;;;0.87;74.97
77019;BME280;66044;53.142;17.962;2023-12-07T13:03:06;101603.64;;;0.87;74.96
77019;BME280;66044;53.142;17.962;2023-12-07T13:05:33;101600.55;;;0.88;74.94
77019;BME280;66044;53.142;17.962;2023-12-07T13:08:04;101600.14;;;0.89;75.14
77019;BME280;66044;53.142;17.962;2023-12-07T13:10:30;101600.16;;;0.90;75.10
77019;BME280;66044;53.142;17.962;2023-12-07T13:12:58;101600.17;;;0.91;75.07
77019;BME280;66044;53.142;17.962;2023-12-07T13:15:24;101605.73;;;0.92;75.12
77019;BME280;66044;53.142;17.962;2023-12-07T13:17:51;101602.31;;;0.93;75.01
77019;BME280;66044;53.142;17.962;2023-12-07T13:20:18;101598.64;;;0.92;75.00
77019;BME280;66044;53.142;17.962;2023-12-07T13:22:44;101602.13;;;0.91;75.05
77019;BME280;66044;53.142;17.962;2023-12-07T13:25:12;101605.13;;;0.90;75.15
77019;BME280;66044;53.142;17.962;2023-12-07T13:27:40;101603.39;;;0.91;75.07
77019;BME280;66044;53.142;17.962;2023-12-07T13:30:07;101605.42;;;0.94;75.22
77019;BME280;66044;53.142;17.962;2023-12-07T13:32:36;101601.55;;;0.97;75.27
77019;BME280;66044;53.142;17.962;2023-12-07T13:35:04;101606.91;;;1.02;75.23
77019;BME280;66044;53.142;17.962;2023-12-07T13:37:31;101612.05;;;1.04;75.20
77019;BME280;66044;53.142;17.962;2023-12-07T13:39:59;101614.73;;;1.04;75.10
77019;BME280;66044;53.142;17.962;2023-12-07T13:42:27;101613.52;;;1.05;75.23
77019;BME280;66044;53.142;17.962;2023-12-07T13:44:54;101614.88;;;1.07;75.14
77019;BME280;66044;53.142;17.962;2023-12-07T13:47:24;101620.67;;;1.05;75.15
77019;BME280;66044;53.142;17.962;2023-12-07T13:49:55;101623.70;;;1.02;75.12
77019;BME280;66044;53.142;17.962;2023-12-07T13:52:23;101626.33;;;1.04;75.15
77019;BME280;66044;53.142;17.962;2023-12-07T13:54:50;101628.39;;;1.07;75.19
77019;BME280;66044;53.142;17.962;2023-12-07T13:57:18;101629.59;;;1.10;75.02
77019;BME280;66044;53.142;17.962;2023-12-07T13:59:45;101633.44;;;1.11;75.14
77019;BME280;66044;53.142;17.962;2023-12-07T14:02:12;101630.91;;;1.13;75.10
77019;BME280;66044;53.142;17.962;2023-12-07T14:04:38;101633.23;;;1.13;75.03
77019;BME280;66044;53.142;17.962;2023-12-07T14:07:08;101635.73;;;1.08;75.08
77019;BME280;66044;53.142;17.962;2023-12-07T14:09:37;101636.85;;;1.04;75.03
77019;BME280;66044;53.142;17.962;2023-12-07T14:12:04;101638.31;;;1.03;75.14
77019;BME280;66044;53.142;17.962;2023-12-07T14:14:30;101633.71;;;1.01;75.12
77019;BME280;66044;53.142;17.962;2023-12-07T14:16:57;101628.57;;;0.97;75.24
77019;BME280;66044;53.142;17.962;2023-12-07T14:19:24;101630.41;;;0.96;75.34
77019;BME280;66044;53.142;17.962;2023-12-07T14:21:50;101633.30;;;0.94;75.24
77019;BME280;66044;53.142;17.962;2023-12-07T14:24:17;101629.68;;;0.91;75.34
77019;BME280;66044;53.142;17.962;2023-12-07T14:26:44;101629.41;;;0.90;75.27
77019;BME280;66044;53.142;17.962;2023-12-07T14:29:11;101627.27;;;0.89;75.33
77019;BME280;66044;53.142;17.962;2023-12-07T14:31:41;101632.23;;;0.89;75.47